sensor_id;sensor_type;location;lat;lon;timestamp;P1;durP1;ratioP1;P2;durP2;ratioP2
18804;SDS011;9530;48.930;9.526;2022-11-20T00:02:09;9.00;;;7.00;;
18804;SDS011;9530;48.930;9.526;2022-11-20T00:04:37;7.70;;;6.40;;
18804;SDS011;9530;48.930;9.526;2022-11-20T00:07:04;9.60;;;6.90;;
18804;SDS011;9530;48.930;9.526;2022-11-20T00:09:31;9.40;;;7.17;;
18804;SDS011;9530;48.930;9.526;2022-11-20T00:11:57;10.80;;;7.73;;
18804;SDS011;9530;48.930;9.526;2022-11-20T00:14:24;11.00;;;7.80;;
18804;SDS011;9530;48.930;9.526;2022-11-20T00:16:51;11.57;;;7.80;;
18804;SDS011;9530;48.930;9.526;2022-11-20T00:19:17;8.30;;;7.17;;
18804;SDS011;9530;48.930;9.526;2022-11-20T00:21:45;10.57;;;7.90;;
18804;SDS011;9530;48.930;9.526;2022-11-20T00:24:12;10.83;;;8.27;;
18804;SDS011;9530;48.930;9.526;2022-11-20T00:26:39;9.97;;;7.90;;
18804;SDS011;9530;48.930;9.526;2022-11-20T00:29:08;10.63;;;8.30;;
18804;SDS011;9530;48.930;9.526;2022-11-20T00:31:35;10.10;;;8.07;;
18804;SDS011;9530;48.930;9.526;2022-11-20T00:34:02;11.83;;;8.73;;
18804;SDS011;9530;48.930;9.526;2022-11-20T00:36:31;11.77;;;8.30;;
18804;SDS011;9530;48.930;9.526;2022-11-20T00:39:00;12.80;;;9.07;;
18804;SDS011;9530;48.930;9.526;2022-11-20T00:41:28;11.97;;;8.37;;
18804;SDS011;9530;48.930;9.526;2022-11-20T00:43:55;13.00;;;9.37;;
18804;SDS011;9530;48.930;9.526;2022-11-20T00:46:23;12.80;;;9.20;;
18804;SDS011;9530;48.930;9.526;2022-11-20T00:48:51;15.43;;;10.23;;
18804;SDS011;9530;48.930;9.526;2022-11-20T00:51:19;14.60;;;10.17;;
18804;SDS011;9530;48.930;9.526;2022-11-20T00:53:47;15.33;;;11.37;;
18804;SDS011;9530;48.930;9.526;2022-11-20T00:56:16;14.53;;;9.93;;
18804;SDS011;9530;48.930;9.526;2022-11-20T00:58:44;14.40;;;10.47;;
18804;SDS011;9530;48.930;9.526;2022-11-20T01:01:14;14.13;;;10.90;;
18804;SDS011;9530;48.930;9.526;2022-11-20T01:03:42;13.50;;;9.63;;
18804;SDS011;9530;48.930;9.526;2022-11-20T01:06:11;12.77;;;9.27;;
18804;SDS011;9530;48.930;9.526;2022-11-20T01:08:39;12.00;;;9.27;;
18804;SDS011;9530;48.930;9.526;2022-11-20T01:11:07;13.90;;;10.23;;
18804;SDS011;9530;48.930;9.526;2022-11-20T01:13:37;13.13;;;9.80;;
18804;SDS011;9530;48.930;9.526;2022-11-20T01:16:04;13.40;;;9.97;;
18804;SDS011;9530;48.930;9.526;2022-11-20T01:18:33;15.83;;;11.13;;
18804;SDS011;9530;48.930;9.526;2022-11-20T01:21:00;14.77;;;10.40;;
18804;SDS011;9530;48.930;9.526;2022-11-20T01:23:30;16.03;;;10.70;;
18804;SDS011;9530;48.930;9.526;2022-11-20T01:25:59;14.07;;;10.13;;
18804;SDS011;9530;48.930;9.526;2022-11-20T01:28:26;16.07;;;11.30;;
18804;SDS011;9530;48.930;9.526;2022-11-20T01:30:56;15.07;;;11.50;;
18804;SDS011;9530;48.930;9.526;2022-11-20T01:33:22;14.40;;;10.90;;
18804;SDS011;9530;48.930;9.526;2022-11-20T01:35:49;16.53;;;11.77;;
18804;SDS011;9530;48.930;9.526;2022-11-20T01:38:16;15.77;;;10.80;;
18804;SDS011;9530;48.930;9.526;2022-11-20T01:40:45;15.47;;;10.80;;
18804;SDS011;9530;48.930;9.526;2022-11-20T01:43:12;15.00;;;11.07;;
18804;SDS011;9530;48.930;9.526;2022-11-20T01:45:52;13.93;;;10.43;;
18804;SDS011;9530;48.930;9.526;2022-11-20T01:48:30;16.70;;;11.20;;
18804;SDS011;9530;48.930;9.526;2022-11-20T01:50:59;15.00;;;10.47;;
18804;SDS011;9530;48.930;9.526;2022-11-20T01:53:30;15.07;;;11.20;;
18804;SDS011;9530;48.930;9.526;2022-11-20T01:55:59;14.07;;;10.40;;
18804;SDS011;9530;48.930;9.526;2022-11-20T01:58:27;15.07;;;10.93;;
18804;SDS011;9530;48.930;9.526;2022-11-20T02:00:58;14.57;;;10.73;;
18804;SDS011;9530;48.930;9.526;2022-11-20T02:03:27;15.13;;;11.20;;
18804;SDS011;9530;48.930;9.526;2022-11-20T02:05:55;12.47;;;10.07;;
18804;SDS011;9530;48.930;9.526;2022-11-20T02:08:27;13.87;;;10.30;;
18804;SDS011;9530;48.930;9.526;2022-11-20T02:10:54;13.97;;;10.17;;
18804;SDS011;9530;48.930;9.526;2022-11-20T02:13:21;11.07;;;9.07;;
18804;SDS011;9530;48.930;9.526;2022-11-20T02:16:09;13.57;;;9.87;;
18804;SDS011;9530;48.930;9.526;2022-11-20T02:18:39;14.10;;;9.67;;
18804;SDS011;9530;48.930;9.526;2022-11-20T02:21:07;10.90;;;8.73;;
18804;SDS011;9530;48.930;9.526;2022-11-20T02:23:38;10.87;;;8.73;;
18804;SDS011;9530;48.930;9.526;2022-11-20T02:26:08;12.43;;;9.40;;
18804;SDS011;9530;48.930;9.526;2022-11-20T02:28:38;12.43;;;9.67;;
18804;SDS011;9530;48.930;9.526;2022-11-20T02:31:05;11.23;;;8.83;;
18804;SDS011;9530;48.930;9.526;2022-11-20T02:33:32;11.30;;;8.97;;
18804;SDS011;9530;48.930;9.526;2022-11-20T02:35:59;12.50;;;9.90;;
18804;SDS011;9530;48.930;9.526;2022-11-20T02:38:26;12.20;;;9.53;;
18804;SDS011;9530;48.930;9.526;2022-11-20T02:40:53;13.03;;;9.57;;
18804;SDS011;9530;48.930;9.526;2022-11-20T02:43:21;13.10;;;8.87;;
18804;SDS011;9530;48.930;9.526;2022-11-20T02:45:47;12.13;;;8.97;;
18804;SDS011;9530;48.930;9.526;2022-11-20T02:48:14;13.37;;;9.40;;
18804;SDS011;9530;48.930;9.526;2022-11-20T02:50:41;12.87;;;8.90;;
18804;SDS011;9530;48.930;9.526;2022-11-20T02:53:08;9.80;;;8.10;;
18804;SDS011;9530;48.930;9.526;2022-11-20T02:55:35;9.70;;;7.73;;
18804;SDS011;9530;48.930;9.526;2022-11-20T02:58:02;8.83;;;7.70;;
18804;SDS011;9530;48.930;9.526;2022-11-20T03:00:30;10.10;;;7.60;;
18804;SDS011;9530;48.930;9.526;2022-11-20T03:02:57;11.77;;;7.97;;
18804;SDS011;9530;48.930;9.526;2022-11-20T03:05:24;10.60;;;8.20;;
18804;SDS011;9530;48.930;9.526;2022-11-20T03:07:50;11.37;;;8.93;;
18804;SDS011;9530;48.930;9.526;2022-11-20T03:10:17;11.83;;;8.50;;
18804;SDS011;9530;48.930;9.526;2022-11-20T03:12:44;11.13;;;7.90;;
18804;SDS011;9530;48.930;9.526;2022-11-20T03:15:11;8.40;;;7.10;;
18804;SDS011;9530;48.930;9.526;2022-11-20T03:17:39;8.67;;;6.93;;
18804;SDS011;9530;48.930;9.526;2022-11-20T03:20:06;9.07;;;6.80;;
18804;SDS011;9530;48.930;9.526;2022-11-20T03:22:34;10.03;;;7.37;;
18804;SDS011;9530;48.930;9.526;2022-11-20T03:25:01;10.57;;;7.73;;
18804;SDS011;9530;48.930;9.526;2022-11-20T03:27:31;9.63;;;7.20;;
18804;SDS011;9530;48.930;9.526;2022-11-20T03:29:58;11.07;;;7.70;;
18804;SDS011;9530;48.930;9.526;2022-11-20T03:32:25;9.47;;;6.40;;
18804;SDS011;9530;48.930;9.526;2022-11-20T03:34:53;9.00;;;6.90;;
18804;SDS011;9530;48.930;9.526;2022-11-20T03:37:19;7.47;;;6.60;;
18804;SDS011;9530;48.930;9.526;2022-11-20T03:39:46;8.30;;;6.40;;
18804;SDS011;9530;48.930;9.526;2022-11-20T03:42:13;7.50;;;6.13;;
18804;SDS011;9530;48.930;9.526;2022-11-20T03:44:53;7.57;;;6.07;;
18804;SDS011;9530;48.930;9.526;2022-11-20T03:47:20;7.73;;;5.70;;
18804;SDS011;9530;48.930;9.526;2022-11-20T03:49:47;7.13;;;5.93;;
18804;SDS011;9530;48.930;9.526;2022-11-20T03:52:15;7.30;;;5.37;;
18804;SDS011;9530;48.930;9.526;2022-11-20T03:54:42;6.03;;;5.23;;
18804;SDS011;9530;48.930;9.526;2022-11-20T03:57:08;9.23;;;5.73;;
18804;SDS011;9530;48.930;9.526;2022-11-20T03:59:35;7.23;;;5.10;;
18804;SDS011;9530;48.930;9.526;2022-11-20T04:02:02;6.30;;;5.03;;
18804;SDS011;9530;48.930;9.526;2022-11-20T04:04:28;6.37;;;5.23;;
18804;SDS011;9530;48.930;9.526;2022-11-20T04:06:55;6.47;;;5.20;;
18804;SDS011;9530;48.930;9.526;2022-11-20T04:09:23;6.80;;;4.80;;
18804;SDS011;9530;48.930;9.526;2022-11-20T04:11:50;6.17;;;4.90;;
18804;SDS011;9530;48.930;9.526;2022-11-20T04:14:16;5.67;;;4.90;;
18804;SDS011;9530;48.930;9.526;2022-11-20T04:16:43;6.43;;;4.83;;
18804;SDS011;9530;48.930;9.526;2022-11-20T04:19:11;5.40;;;4.30;;
18804;SDS011;9530;48.930;9.526;2022-11-20T04:21:39;5.00;;;4.20;;
18804;SDS011;9530;48.930;9.526;2022-11-20T04:24:06;6.07;;;4.70;;
18804;SDS011;9530;48.930;9.526;2022-11-20T04:26:34;5.57;;;4.23;;
18804;SDS011;9530;48.930;9.526;2022-11-20T04:29:01;13.10;;;4.53;;
18804;SDS011;9530;48.930;9.526;2022-11-20T04:31:31;5.20;;;3.73;;
18804;SDS011;9530;48.930;9.526;2022-11-20T04:33:59;6.53;;;4.10;;
18804;SDS011;9530;48.930;9.526;2022-11-20T04:36:27;4.07;;;3.60;;
18804;SDS011;9530;48.930;9.526;2022-11-20T04:38:56;4.00;;;3.40;;
18804;SDS011;9530;48.930;9.526;2022-11-20T04:41:25;3.93;;;2.97;;
18804;SDS011;9530;48.930;9.526;2022-11-20T04:43:55;4.03;;;3.20;;
18804;SDS011;9530;48.930;9.526;2022-11-20T04:46:27;5.63;;;2.90;;
18804;SDS011;9530;48.930;9.526;2022-11-20T04:48:55;3.83;;;3.27;;
18804;SDS011;9530;48.930;9.526;2022-11-20T04:51:22;3.90;;;2.80;;
18804;SDS011;9530;48.930;9.526;2022-11-20T04:53:49;3.60;;;2.60;;
18804;SDS011;9530;48.930;9.526;2022-11-20T04:56:16;5.03;;;2.90;;
18804;SDS011;9530;48.930;9.526;2022-11-20T04:58:43;3.20;;;2.67;;
18804;SDS011;9530;48.930;9.526;2022-11-20T05:01:12;3.83;;;2.57;;
18804;SDS011;9530;48.930;9.526;2022-11-20T05:03:40;4.97;;;2.20;;
18804;SDS011;9530;48.930;9.526;2022-11-20T05:06:08;4.70;;;2.53;;
18804;SDS011;9530;48.930;9.526;2022-11-20T05:08:35;3.47;;;2.40;;
18804;SDS011;9530;48.930;9.526;2022-11-20T05:11:02;4.30;;;2.20;;
18804;SDS011;9530;48.930;9.526;2022-11-20T05:13:30;3.93;;;2.63;;
18804;SDS011;9530;48.930;9.526;2022-11-20T05:16:00;3.10;;;2.30;;
18804;SDS011;9530;48.930;9.526;2022-11-20T05:18:29;5.07;;;2.43;;
18804;SDS011;9530;48.930;9.526;2022-11-20T05:20:56;5.90;;;2.93;;
18804;SDS011;9530;48.930;9.526;2022-11-20T05:23:24;4.83;;;2.70;;
18804;SDS011;9530;48.930;9.526;2022-11-20T05:25:51;3.63;;;2.50;;
18804;SDS011;9530;48.930;9.526;2022-11-20T05:28:19;3.17;;;2.30;;
18804;SDS011;9530;48.930;9.526;2022-11-20T05:30:46;2.63;;;2.40;;
18804;SDS011;9530;48.930;9.526;2022-11-20T05:33:13;3.70;;;2.50;;
18804;SDS011;9530;48.930;9.526;2022-11-20T05:35:42;3.27;;;2.33;;
18804;SDS011;9530;48.930;9.526;2022-11-20T05:38:09;3.07;;;2.23;;
18804;SDS011;9530;48.930;9.526;2022-11-20T05:40:35;2.60;;;2.30;;
18804;SDS011;9530;48.930;9.526;2022-11-20T05:43:02;3.50;;;2.20;;
18804;SDS011;9530;48.930;9.526;2022-11-20T05:45:29;3.00;;;2.30;;
18804;SDS011;9530;48.930;9.526;2022-11-20T05:47:57;2.90;;;2.20;;
18804;SDS011;9530;48.930;9.526;2022-11-20T05:50:25;5.03;;;2.30;;
18804;SDS011;9530;48.930;9.526;2022-11-20T05:52:53;7.60;;;2.63;;
18804;SDS011;9530;48.930;9.526;2022-11-20T05:55:19;3.40;;;2.43;;
18804;SDS011;9530;48.930;9.526;2022-11-20T05:57:46;4.13;;;2.60;;
18804;SDS011;9530;48.930;9.526;2022-11-20T06:00:13;3.27;;;2.30;;
18804;SDS011;9530;48.930;9.526;2022-11-20T06:02:41;3.00;;;2.17;;
18804;SDS011;9530;48.930;9.526;2022-11-20T06:05:07;2.37;;;2.10;;
18804;SDS011;9530;48.930;9.526;2022-11-20T06:07:34;3.30;;;2.30;;
18804;SDS011;9530;48.930;9.526;2022-11-20T06:10:02;3.27;;;2.27;;
18804;SDS011;9530;48.930;9.526;2022-11-20T06:12:30;4.27;;;2.17;;
18804;SDS011;9530;48.930;9.526;2022-11-20T06:14:57;2.77;;;2.23;;
18804;SDS011;9530;48.930;9.526;2022-11-20T06:17:24;3.10;;;2.00;;
18804;SDS011;9530;48.930;9.526;2022-11-20T06:19:51;2.63;;;2.43;;
18804;SDS011;9530;48.930;9.526;2022-11-20T06:22:17;3.40;;;2.23;;
18804;SDS011;9530;48.930;9.526;2022-11-20T06:24:44;2.83;;;2.20;;
18804;SDS011;9530;48.930;9.526;2022-11-20T06:27:12;2.20;;;1.80;;
18804;SDS011;9530;48.930;9.526;2022-11-20T06:29:39;3.97;;;2.50;;
18804;SDS011;9530;48.930;9.526;2022-11-20T06:32:05;3.47;;;2.57;;
18804;SDS011;9530;48.930;9.526;2022-11-20T06:34:32;2.70;;;2.40;;
18804;SDS011;9530;48.930;9.526;2022-11-20T06:36:59;3.93;;;2.50;;
18804;SDS011;9530;48.930;9.526;2022-11-20T06:39:25;3.03;;;2.70;;
18804;SDS011;9530;48.930;9.526;2022-11-20T06:41:52;4.43;;;2.33;;
18804;SDS011;9530;48.930;9.526;2022-11-20T06:44:20;5.27;;;2.40;;
18804;SDS011;9530;48.930;9.526;2022-11-20T06:46:47;3.20;;;2.10;;
18804;SDS011;9530;48.930;9.526;2022-11-20T06:49:14;2.57;;;2.20;;
18804;SDS011;9530;48.930;9.526;2022-11-20T06:51:40;2.60;;;1.93;;
18804;SDS011;9530;48.930;9.526;2022-11-20T06:54:07;4.23;;;2.30;;
18804;SDS011;9530;48.930;9.526;2022-11-20T06:56:34;3.10;;;2.13;;
18804;SDS011;9530;48.930;9.526;2022-11-20T06:59:03;2.90;;;2.27;;
18804;SDS011;9530;48.930;9.526;2022-11-20T07:01:32;3.57;;;2.20;;
18804;SDS011;9530;48.930;9.526;2022-11-20T07:03:59;3.53;;;2.07;;
18804;SDS011;9530;48.930;9.526;2022-11-20T07:06:27;2.77;;;2.10;;
18804;SDS011;9530;48.930;9.526;2022-11-20T07:08:53;2.13;;;1.93;;
18804;SDS011;9530;48.930;9.526;2022-11-20T07:11:20;3.57;;;1.93;;
18804;SDS011;9530;48.930;9.526;2022-11-20T07:13:47;2.53;;;1.80;;
18804;SDS011;9530;48.930;9.526;2022-11-20T07:16:13;3.37;;;2.20;;
18804;SDS011;9530;48.930;9.526;2022-11-20T07:18:42;2.47;;;2.03;;
18804;SDS011;9530;48.930;9.526;2022-11-20T07:21:09;3.07;;;1.93;;
18804;SDS011;9530;48.930;9.526;2022-11-20T07:23:36;2.40;;;1.80;;
18804;SDS011;9530;48.930;9.526;2022-11-20T07:26:04;3.27;;;1.97;;
18804;SDS011;9530;48.930;9.526;2022-11-20T07:28:31;3.40;;;2.00;;
18804;SDS011;9530;48.930;9.526;2022-11-20T07:30:58;3.20;;;2.17;;
18804;SDS011;9530;48.930;9.526;2022-11-20T07:33:24;3.07;;;1.77;;
18804;SDS011;9530;48.930;9.526;2022-11-20T07:35:52;2.20;;;2.00;;
18804;SDS011;9530;48.930;9.526;2022-11-20T07:38:19;2.03;;;1.83;;
18804;SDS011;9530;48.930;9.526;2022-11-20T07:40:46;3.10;;;2.00;;
18804;SDS011;9530;48.930;9.526;2022-11-20T07:43:13;2.40;;;1.77;;
18804;SDS011;9530;48.930;9.526;2022-11-20T07:45:40;2.70;;;1.90;;
18804;SDS011;9530;48.930;9.526;2022-11-20T07:48:07;2.40;;;1.80;;
18804;SDS011;9530;48.930;9.526;2022-11-20T07:50:34;2.80;;;1.87;;
18804;SDS011;9530;48.930;9.526;2022-11-20T07:53:03;2.97;;;2.10;;
18804;SDS011;9530;48.930;9.526;2022-11-20T07:55:30;2.60;;;2.13;;
18804;SDS011;9530;48.930;9.526;2022-11-20T07:57:57;2.53;;;2.20;;
18804;SDS011;9530;48.930;9.526;2022-11-20T08:00:25;5.10;;;2.33;;
18804;SDS011;9530;48.930;9.526;2022-11-20T08:02:52;2.20;;;2.00;;
18804;SDS011;9530;48.930;9.526;2022-11-20T08:05:19;2.70;;;2.27;;
18804;SDS011;9530;48.930;9.526;2022-11-20T08:07:46;3.57;;;2.23;;
18804;SDS011;9530;48.930;9.526;2022-11-20T08:10:14;4.97;;;2.20;;
18804;SDS011;9530;48.930;9.526;2022-11-20T08:12:45;3.47;;;2.17;;
18804;SDS011;9530;48.930;9.526;2022-11-20T08:15:29;3.40;;;2.10;;
18804;SDS011;9530;48.930;9.526;2022-11-20T08:18:00;4.93;;;2.03;;
18804;SDS011;9530;48.930;9.526;2022-11-20T08:20:28;2.70;;;2.13;;
18804;SDS011;9530;48.930;9.526;2022-11-20T08:22:58;4.30;;;2.23;;
18804;SDS011;9530;48.930;9.526;2022-11-20T08:25:27;2.43;;;1.90;;
18804;SDS011;9530;48.930;9.526;2022-11-20T08:27:56;2.50;;;1.90;;
18804;SDS011;9530;48.930;9.526;2022-11-20T08:30:23;2.20;;;2.00;;
18804;SDS011;9530;48.930;9.526;2022-11-20T08:32:50;2.83;;;2.10;;
18804;SDS011;9530;48.930;9.526;2022-11-20T08:35:17;3.37;;;2.20;;
18804;SDS011;9530;48.930;9.526;2022-11-20T08:37:45;2.60;;;2.00;;
18804;SDS011;9530;48.930;9.526;2022-11-20T08:40:12;4.20;;;2.20;;
18804;SDS011;9530;48.930;9.526;2022-11-20T08:42:46;3.33;;;2.50;;
18804;SDS011;9530;48.930;9.526;2022-11-20T08:45:14;3.67;;;2.70;;
18804;SDS011;9530;48.930;9.526;2022-11-20T08:47:41;3.27;;;2.80;;
18804;SDS011;9530;48.930;9.526;2022-11-20T08:50:08;2.90;;;2.30;;
18804;SDS011;9530;48.930;9.526;2022-11-20T08:52:35;3.00;;;2.10;;
18804;SDS011;9530;48.930;9.526;2022-11-20T08:55:02;3.77;;;3.23;;
18804;SDS011;9530;48.930;9.526;2022-11-20T08:57:31;5.17;;;3.90;;
18804;SDS011;9530;48.930;9.526;2022-11-20T08:59:59;4.63;;;3.07;;
18804;SDS011;9530;48.930;9.526;2022-11-20T09:02:26;4.30;;;2.60;;
18804;SDS011;9530;48.930;9.526;2022-11-20T09:04:53;3.20;;;2.70;;
18804;SDS011;9530;48.930;9.526;2022-11-20T09:07:20;3.10;;;1.80;;
18804;SDS011;9530;48.930;9.526;2022-11-20T09:09:47;3.77;;;2.40;;
18804;SDS011;9530;48.930;9.526;2022-11-20T09:12:13;2.80;;;2.40;;
18804;SDS011;9530;48.930;9.526;2022-11-20T09:14:40;3.97;;;2.37;;
18804;SDS011;9530;48.930;9.526;2022-11-20T10:04:20;8.10;;;5.60;;
18804;SDS011;9530;48.930;9.526;2022-11-20T10:06:50;4.10;;;3.50;;
18804;SDS011;9530;48.930;9.526;2022-11-20T10:09:23;4.07;;;3.60;;
18804;SDS011;9530;48.930;9.526;2022-11-20T10:12:00;5.87;;;3.80;;
18804;SDS011;9530;48.930;9.526;2022-11-20T10:14:39;3.93;;;3.17;;
18804;SDS011;9530;48.930;9.526;2022-11-20T10:17:14;4.20;;;3.70;;
18804;SDS011;9530;48.930;9.526;2022-11-20T10:19:51;6.80;;;4.50;;
18804;SDS011;9530;48.930;9.526;2022-11-20T10:22:30;6.30;;;4.20;;
18804;SDS011;9530;48.930;9.526;2022-11-20T10:25:13;6.73;;;4.87;;
18804;SDS011;9530;48.930;9.526;2022-11-20T10:27:48;5.10;;;4.07;;
18804;SDS011;9530;48.930;9.526;2022-11-20T10:30:41;5.07;;;4.00;;
18804;SDS011;9530;48.930;9.526;2022-11-20T10:33:11;3.53;;;3.23;;
18804;SDS011;9530;48.930;9.526;2022-11-20T10:35:44;6.27;;;3.87;;
18804;SDS011;9530;48.930;9.526;2022-11-20T10:38:16;6.27;;;4.10;;
18804;SDS011;9530;48.930;9.526;2022-11-20T10:40:48;6.07;;;3.90;;
18804;SDS011;9530;48.930;9.526;2022-11-20T10:43:19;7.40;;;4.87;;
18804;SDS011;9530;48.930;9.526;2022-11-20T10:45:52;6.33;;;4.40;;
18804;SDS011;9530;48.930;9.526;2022-11-20T10:48:23;3.93;;;3.10;;
18804;SDS011;9530;48.930;9.526;2022-11-20T10:51:01;3.73;;;2.53;;
18804;SDS011;9530;48.930;9.526;2022-11-20T10:53:53;4.10;;;2.67;;
18804;SDS011;9530;48.930;9.526;2022-11-20T10:56:25;3.17;;;2.53;;
18804;SDS011;9530;48.930;9.526;2022-11-20T10:59:03;3.67;;;2.10;;
18804;SDS011;9530;48.930;9.526;2022-11-20T11:01:52;3.60;;;2.03;;
18804;SDS011;9530;48.930;9.526;2022-11-20T11:04:23;5.83;;;2.90;;
18804;SDS011;9530;48.930;9.526;2022-11-20T11:07:06;2.83;;;2.27;;
18804;SDS011;9530;48.930;9.526;2022-11-20T11:09:38;2.20;;;1.90;;
18804;SDS011;9530;48.930;9.526;2022-11-20T11:12:09;2.50;;;2.10;;
18804;SDS011;9530;48.930;9.526;2022-11-20T11:14:46;4.10;;;2.10;;
18804;SDS011;9530;48.930;9.526;2022-11-20T11:17:18;2.27;;;1.90;;
18804;SDS011;9530;48.930;9.526;2022-11-20T11:19:58;2.37;;;1.70;;
18804;SDS011;9530;48.930;9.526;2022-11-20T11:22:28;2.17;;;1.83;;
18804;SDS011;9530;48.930;9.526;2022-11-20T11:24:56;2.03;;;1.77;;
18804;SDS011;9530;48.930;9.526;2022-11-20T11:27:22;2.77;;;2.23;;
18804;SDS011;9530;48.930;9.526;2022-11-20T11:29:49;2.50;;;1.90;;
18804;SDS011;9530;48.930;9.526;2022-11-20T11:32:26;2.53;;;1.80;;
18804;SDS011;9530;48.930;9.526;2022-11-20T11:34:59;3.13;;;1.80;;
18804;SDS011;9530;48.930;9.526;2022-11-20T11:37:29;2.30;;;2.10;;
18804;SDS011;9530;48.930;9.526;2022-11-20T11:39:59;2.33;;;2.00;;
18804;SDS011;9530;48.930;9.526;2022-11-20T11:42:26;2.63;;;2.20;;
18804;SDS011;9530;48.930;9.526;2022-11-20T11:44:54;4.13;;;2.70;;
18804;SDS011;9530;48.930;9.526;2022-11-20T11:47:33;3.20;;;2.67;;
18804;SDS011;9530;48.930;9.526;2022-11-20T11:52:48;2.80;;;2.30;;
18804;SDS011;9530;48.930;9.526;2022-11-20T11:55:24;2.80;;;2.60;;
18804;SDS011;9530;48.930;9.526;2022-11-20T11:57:57;4.33;;;2.80;;
18804;SDS011;9530;48.930;9.526;2022-11-20T12:00:33;3.47;;;2.50;;
18804;SDS011;9530;48.930;9.526;2022-11-20T12:03:04;4.40;;;2.80;;
18804;SDS011;9530;48.930;9.526;2022-11-20T12:05:40;3.27;;;2.67;;
18804;SDS011;9530;48.930;9.526;2022-11-20T12:08:12;4.40;;;2.67;;
18804;SDS011;9530;48.930;9.526;2022-11-20T12:10:44;4.00;;;2.67;;
18804;SDS011;9530;48.930;9.526;2022-11-20T12:13:21;3.70;;;2.70;;
18804;SDS011;9530;48.930;9.526;2022-11-20T12:15:58;3.47;;;2.20;;
18804;SDS011;9530;48.930;9.526;2022-11-20T12:18:26;4.57;;;2.60;;
18804;SDS011;9530;48.930;9.526;2022-11-20T12:21:02;3.93;;;2.60;;
18804;SDS011;9530;48.930;9.526;2022-11-20T12:23:40;3.10;;;2.10;;
18804;SDS011;9530;48.930;9.526;2022-11-20T12:26:17;4.23;;;2.00;;
18804;SDS011;9530;48.930;9.526;2022-11-20T12:28:56;2.77;;;2.10;;
18804;SDS011;9530;48.930;9.526;2022-11-20T12:31:37;7.00;;;3.33;;
18804;SDS011;9530;48.930;9.526;2022-11-20T12:34:19;6.50;;;2.57;;
18804;SDS011;9530;48.930;9.526;2022-11-20T12:36:56;3.47;;;2.47;;
18804;SDS011;9530;48.930;9.526;2022-11-20T12:39:34;3.73;;;2.20;;
18804;SDS011;9530;48.930;9.526;2022-11-20T12:42:09;3.63;;;2.20;;
18804;SDS011;9530;48.930;9.526;2022-11-20T12:45:15;2.87;;;1.90;;
18804;SDS011;9530;48.930;9.526;2022-11-20T12:48:03;3.37;;;1.70;;
18804;SDS011;9530;48.930;9.526;2022-11-20T12:50:46;4.80;;;2.00;;
18804;SDS011;9530;48.930;9.526;2022-11-20T12:53:22;6.43;;;2.70;;
18804;SDS011;9530;48.930;9.526;2022-11-20T12:55:59;5.90;;;2.17;;
18804;SDS011;9530;48.930;9.526;2022-11-20T12:58:33;5.47;;;2.30;;
18804;SDS011;9530;48.930;9.526;2022-11-20T13:01:07;5.27;;;2.30;;
18804;SDS011;9530;48.930;9.526;2022-11-20T13:04:03;2.40;;;1.83;;
18804;SDS011;9530;48.930;9.526;2022-11-20T13:06:35;2.93;;;2.10;;
18804;SDS011;9530;48.930;9.526;2022-11-20T13:09:02;4.00;;;2.13;;
18804;SDS011;9530;48.930;9.526;2022-11-20T13:11:37;5.67;;;2.03;;
18804;SDS011;9530;48.930;9.526;2022-11-20T13:14:10;4.37;;;1.90;;
18804;SDS011;9530;48.930;9.526;2022-11-20T13:16:44;3.83;;;2.30;;
18804;SDS011;9530;48.930;9.526;2022-11-20T13:19:16;6.47;;;2.60;;
18804;SDS011;9530;48.930;9.526;2022-11-20T13:21:44;5.40;;;3.00;;
18804;SDS011;9530;48.930;9.526;2022-11-20T13:24:21;3.67;;;2.00;;
18804;SDS011;9530;48.930;9.526;2022-11-20T13:27:02;6.93;;;3.13;;
18804;SDS011;9530;48.930;9.526;2022-11-20T13:29:31;5.63;;;2.63;;
18804;SDS011;9530;48.930;9.526;2022-11-20T13:32:03;4.87;;;2.60;;
18804;SDS011;9530;48.930;9.526;2022-11-20T13:34:32;5.03;;;1.57;;
18804;SDS011;9530;48.930;9.526;2022-11-20T13:37:00;1.60;;;1.30;;
18804;SDS011;9530;48.930;9.526;2022-11-20T13:39:29;4.27;;;1.67;;
18804;SDS011;9530;48.930;9.526;2022-11-20T13:41:58;4.70;;;1.90;;
18804;SDS011;9530;48.930;9.526;2022-11-20T13:44:28;4.77;;;2.10;;
18804;SDS011;9530;48.930;9.526;2022-11-20T13:46:59;3.17;;;2.50;;
18804;SDS011;9530;48.930;9.526;2022-11-20T13:49:26;3.83;;;2.40;;
18804;SDS011;9530;48.930;9.526;2022-11-20T13:51:59;2.77;;;1.60;;
18804;SDS011;9530;48.930;9.526;2022-11-20T13:54:54;5.27;;;1.97;;
18804;SDS011;9530;48.930;9.526;2022-11-20T13:57:37;3.07;;;2.10;;
18804;SDS011;9530;48.930;9.526;2022-11-20T14:00:28;5.30;;;2.10;;
18804;SDS011;9530;48.930;9.526;2022-11-20T14:03:01;3.70;;;1.87;;
18804;SDS011;9530;48.930;9.526;2022-11-20T14:05:35;2.93;;;2.00;;
18804;SDS011;9530;48.930;9.526;2022-11-20T14:08:04;4.53;;;2.30;;
18804;SDS011;9530;48.930;9.526;2022-11-20T14:10:37;3.40;;;2.20;;
18804;SDS011;9530;48.930;9.526;2022-11-20T14:13:09;2.43;;;1.70;;
18804;SDS011;9530;48.930;9.526;2022-11-20T14:15:38;7.13;;;2.47;;
18804;SDS011;9530;48.930;9.526;2022-11-20T14:18:11;4.30;;;1.90;;
18804;SDS011;9530;48.930;9.526;2022-11-20T14:20:39;2.90;;;1.77;;
18804;SDS011;9530;48.930;9.526;2022-11-20T14:23:07;5.37;;;1.90;;
18804;SDS011;9530;48.930;9.526;2022-11-20T14:25:36;4.33;;;1.80;;
18804;SDS011;9530;48.930;9.526;2022-11-20T14:28:10;4.97;;;2.23;;
18804;SDS011;9530;48.930;9.526;2022-11-20T14:30:47;6.07;;;1.53;;
18804;SDS011;9530;48.930;9.526;2022-11-20T14:33:15;4.33;;;2.07;;
18804;SDS011;9530;48.930;9.526;2022-11-20T14:35:45;4.13;;;2.20;;
18804;SDS011;9530;48.930;9.526;2022-11-20T14:38:14;5.03;;;2.80;;
18804;SDS011;9530;48.930;9.526;2022-11-20T14:40:42;2.70;;;1.70;;
18804;SDS011;9530;48.930;9.526;2022-11-20T14:43:16;2.70;;;1.90;;
18804;SDS011;9530;48.930;9.526;2022-11-20T14:45:48;3.33;;;1.97;;
18804;SDS011;9530;48.930;9.526;2022-11-20T14:48:21;3.33;;;2.07;;
18804;SDS011;9530;48.930;9.526;2022-11-20T14:50:50;4.10;;;2.17;;
18804;SDS011;9530;48.930;9.526;2022-11-20T14:53:21;4.93;;;2.37;;
18804;SDS011;9530;48.930;9.526;2022-11-20T14:55:53;5.27;;;2.23;;
18804;SDS011;9530;48.930;9.526;2022-11-20T14:58:22;4.13;;;2.47;;
18804;SDS011;9530;48.930;9.526;2022-11-20T15:00:54;7.77;;;2.90;;
18804;SDS011;9530;48.930;9.526;2022-11-20T15:03:30;5.87;;;3.27;;
18804;SDS011;9530;48.930;9.526;2022-11-20T15:05:58;7.23;;;3.50;;
18804;SDS011;9530;48.930;9.526;2022-11-20T15:08:25;5.97;;;3.63;;
18804;SDS011;9530;48.930;9.526;2022-11-20T15:10:52;4.77;;;3.17;;
18804;SDS011;9530;48.930;9.526;2022-11-20T15:13:23;3.47;;;2.03;;
18804;SDS011;9530;48.930;9.526;2022-11-20T15:15:54;3.73;;;2.90;;
18804;SDS011;9530;48.930;9.526;2022-11-20T15:18:22;4.67;;;2.37;;
18804;SDS011;9530;48.930;9.526;2022-11-20T15:20:51;2.40;;;1.90;;
18804;SDS011;9530;48.930;9.526;2022-11-20T15:23:21;5.17;;;2.30;;
18804;SDS011;9530;48.930;9.526;2022-11-20T15:25:48;2.77;;;2.40;;
18804;SDS011;9530;48.930;9.526;2022-11-20T15:28:16;3.70;;;1.97;;
18804;SDS011;9530;48.930;9.526;2022-11-20T15:30:44;3.97;;;2.00;;
18804;SDS011;9530;48.930;9.526;2022-11-20T15:33:13;2.83;;;1.80;;
18804;SDS011;9530;48.930;9.526;2022-11-20T15:35:41;2.73;;;1.80;;
18804;SDS011;9530;48.930;9.526;2022-11-20T15:38:08;4.03;;;1.90;;
18804;SDS011;9530;48.930;9.526;2022-11-20T15:40:35;3.40;;;2.13;;
18804;SDS011;9530;48.930;9.526;2022-11-20T15:43:02;2.77;;;1.80;;
18804;SDS011;9530;48.930;9.526;2022-11-20T15:45:29;2.50;;;1.70;;
18804;SDS011;9530;48.930;9.526;2022-11-20T15:48:00;3.07;;;1.97;;
18804;SDS011;9530;48.930;9.526;2022-11-20T15:50:32;2.57;;;1.60;;
18804;SDS011;9530;48.930;9.526;2022-11-20T15:53:02;3.13;;;1.30;;
18804;SDS011;9530;48.930;9.526;2022-11-20T15:55:29;2.40;;;1.63;;
18804;SDS011;9530;48.930;9.526;2022-11-20T15:57:56;3.70;;;1.70;;
18804;SDS011;9530;48.930;9.526;2022-11-20T16:00:23;4.03;;;1.80;;
18804;SDS011;9530;48.930;9.526;2022-11-20T16:02:50;5.03;;;2.00;;
18804;SDS011;9530;48.930;9.526;2022-11-20T16:05:17;4.37;;;2.50;;